createdAt,value
2023-02-07T00:03:30.743Z,99.90
2023-02-07T00:09:23.768Z,99.90
2023-02-07T00:15:17.290Z,99.90
2023-02-07T00:21:14.015Z,99.90
2023-02-07T00:27:08.087Z,99.90
2023-02-07T00:33:01.611Z,99.90
2023-02-07T00:39:00.048Z,99.90
2023-02-07T00:44:53.523Z,99.90
2023-02-07T00:50:46.929Z,99.90
2023-02-07T00:56:41.722Z,99.90
2023-02-07T01:02:34.740Z,99.90
2023-02-07T01:08:28.281Z,99.90
2023-02-07T01:14:23.076Z,99.90
2023-02-07T01:20:16.692Z,99.90
2023-02-07T01:26:09.696Z,99.90
2023-02-07T01:32:04.524Z,99.90
2023-02-07T01:37:58.755Z,99.90
2023-02-07T01:44:01.183Z,99.90
2023-02-07T01:49:59.076Z,99.90
2023-02-07T01:55:55.351Z,99.90
2023-02-07T02:01:49.035Z,99.90
2023-02-07T02:07:45.413Z,99.90
2023-02-07T02:13:46.434Z,99.90
2023-02-07T02:20:10.525Z,99.90
2023-02-07T02:26:42.130Z,99.90
2023-02-07T02:33:04.015Z,99.90
2023-02-07T02:39:08.391Z,99.90
2023-02-07T02:45:04.191Z,99.90
2023-02-07T02:50:59.668Z,99.90
2023-02-07T02:57:20.391Z,99.90
2023-02-07T03:03:32.350Z,99.90
2023-02-07T03:09:38.869Z,99.90
2023-02-07T03:15:42.079Z,99.90
2023-02-07T03:21:40.207Z,99.90
2023-02-07T03:27:35.786Z,99.90
2023-02-07T03:33:29.692Z,99.90
2023-02-07T03:39:23.444Z,99.90
2023-02-07T03:45:20.532Z,99.90
2023-02-07T03:51:13.931Z,99.90
2023-02-07T03:57:07.349Z,99.90
2023-02-07T04:03:02.082Z,99.90
2023-02-07T04:08:55.479Z,99.90
2023-02-07T04:14:48.479Z,99.90
2023-02-07T04:20:43.243Z,99.90
2023-02-07T04:26:36.882Z,99.90
2023-02-07T04:32:30.310Z,99.90
2023-02-07T04:38:25.636Z,99.90
2023-02-07T04:44:19.031Z,99.90
2023-02-07T04:50:12.491Z,99.90
2023-02-07T04:56:08.020Z,99.90
2023-02-07T05:02:01.442Z,99.90
2023-02-07T05:07:54.990Z,99.90
2023-02-07T05:13:50.620Z,99.90
2023-02-07T05:19:44.156Z,99.90
2023-02-07T05:25:38.076Z,99.90
2023-02-07T05:31:47.207Z,99.90
2023-02-07T05:37:40.665Z,99.90
2023-02-07T05:43:33.628Z,99.90
2023-02-07T05:49:28.211Z,99.90
2023-02-07T05:55:21.403Z,99.90
2023-02-07T06:01:14.860Z,99.90
2023-02-07T06:07:09.749Z,99.90
2023-02-07T06:13:02.742Z,99.90
2023-02-07T06:18:56.338Z,99.90
2023-02-07T06:24:51.145Z,99.90
2023-02-07T06:30:45.639Z,99.90
2023-02-07T06:36:38.770Z,99.90
2023-02-07T06:42:33.336Z,99.90
2023-02-07T06:48:26.429Z,99.90
2023-02-07T06:54:19.755Z,99.90
2023-02-07T07:00:15.788Z,99.90
2023-02-07T07:06:08.821Z,99.90
2023-02-07T07:12:02.397Z,99.90
2023-02-07T07:17:57.259Z,99.90
2023-02-07T07:23:50.581Z,99.90
2023-02-07T07:29:43.593Z,99.90
2023-02-07T07:35:38.399Z,99.90
2023-02-07T07:41:31.802Z,99.90
2023-02-07T07:47:25.277Z,99.90
2023-02-07T07:53:20.496Z,99.90
2023-02-07T07:59:23.710Z,99.90
2023-02-07T08:05:17.777Z,99.90
2023-02-07T08:11:12.631Z,99.90
2023-02-07T08:17:06.001Z,99.90
2023-02-07T08:22:59.208Z,99.90
2023-02-07T08:28:54.087Z,99.90
2023-02-07T08:34:47.195Z,99.90
2023-02-07T08:40:41.124Z,99.90
2023-02-07T08:46:35.614Z,99.90
2023-02-07T08:52:29.891Z,99.90
2023-02-07T08:58:22.878Z,99.90
2023-02-07T09:04:18.101Z,99.90
2023-02-07T09:10:11.654Z,99.90
2023-02-07T09:16:04.722Z,99.90
2023-02-07T09:21:59.348Z,99.90
2023-02-07T09:27:52.820Z,99.90
2023-02-07T09:33:45.955Z,99.90
2023-02-07T09:39:43.030Z,99.90
2023-02-07T09:45:41.572Z,99.90
2023-02-07T09:51:37.484Z,99.90
2023-02-07T09:57:37.905Z,99.90
2023-02-07T10:03:33.001Z,99.90
2023-02-07T10:09:29.937Z,99.90
2023-02-07T10:15:36.191Z,99.90
2023-02-07T10:21:39.988Z,99.90
2023-02-07T10:27:36.842Z,99.90
2023-02-07T10:33:34.639Z,99.90
2023-02-07T10:39:32.754Z,99.90
2023-02-07T10:45:26.194Z,99.90
2023-02-07T10:51:29.009Z,99.90
2023-02-07T10:57:23.416Z,99.90
2023-02-07T11:03:20.556Z,99.90
2023-02-07T11:09:22.121Z,99.90
2023-02-07T11:15:18.880Z,99.90
2023-02-07T11:21:25.327Z,99.90
2023-02-07T11:27:22.596Z,99.90
2023-02-07T11:33:20.794Z,99.90
2023-02-07T11:39:17.835Z,99.90
2023-02-07T11:45:17.394Z,99.90
2023-02-07T11:51:18.294Z,99.90
2023-02-07T11:57:15.567Z,99.90
2023-02-07T12:03:22.609Z,99.90
2023-02-07T12:09:33.037Z,99.90
2023-02-07T12:15:32.769Z,99.90
2023-02-07T12:21:32.249Z,99.90
2023-02-07T12:27:30.768Z,99.90
2023-02-07T12:33:34.259Z,99.90
2023-02-07T12:39:36.606Z,99.90
2023-02-07T12:45:47.355Z,99.90
2023-02-07T12:51:53.943Z,99.90
2023-02-07T12:57:56.122Z,99.90
2023-02-07T13:04:12.947Z,99.90
2023-02-07T13:10:19.764Z,99.90
2023-02-07T13:16:20.272Z,99.90
2023-02-07T13:22:23.618Z,99.90
2023-02-07T13:28:26.884Z,99.90
2023-02-07T13:34:24.280Z,99.90
2023-02-07T13:40:32.113Z,99.90
2023-02-07T13:46:56.260Z,99.90
2023-02-07T13:52:57.742Z,99.90
2023-02-07T13:59:12.039Z,99.90
2023-02-07T14:05:10.965Z,99.90
2023-02-07T14:11:27.626Z,99.90
2023-02-07T14:17:53.994Z,99.90
2023-02-07T14:24:06.474Z,99.90
2023-02-07T14:30:22.347Z,99.90
2023-02-07T14:36:26.702Z,99.90
2023-02-07T14:42:23.334Z,99.90
2023-02-07T14:48:37.353Z,99.90
2023-02-07T14:54:37.201Z,97.90
2023-02-07T15:00:35.708Z,96.80
2023-02-07T15:06:32.779Z,96.20
2023-02-07T15:12:28.509Z,93.90
2023-02-07T15:18:23.742Z,91.40
2023-02-07T15:24:24.622Z,93.10
2023-02-07T15:30:20.542Z,93.10
2023-02-07T15:36:30.171Z,92.70
2023-02-07T15:42:24.790Z,94.00
2023-02-07T15:48:18.250Z,94.30
2023-02-07T15:54:18.392Z,94.50
2023-02-07T16:00:19.056Z,95.10
2023-02-07T16:06:19.292Z,96.30
2023-02-07T16:12:49.736Z,99.90
2023-02-07T16:18:46.298Z,99.90
2023-02-07T16:24:43.009Z,99.90
2023-02-07T16:30:39.362Z,99.90
2023-02-07T16:36:34.179Z,99.90
2023-02-07T16:42:27.183Z,99.90
2023-02-07T16:48:20.668Z,99.90
2023-02-07T16:54:16.263Z,99.90
2023-02-07T17:00:14.534Z,99.90
2023-02-07T17:06:08.667Z,99.90
2023-02-07T17:12:03.572Z,99.90
2023-02-07T17:17:59.769Z,99.90
2023-02-07T17:23:52.844Z,99.90
2023-02-07T17:29:47.232Z,99.90
2023-02-07T17:35:41.049Z,99.90
2023-02-07T17:41:34.803Z,99.90
2023-02-07T17:47:29.555Z,99.90
2023-02-07T17:53:23.646Z,99.90
2023-02-07T17:59:23.757Z,99.90
2023-02-07T18:05:19.528Z,99.90
2023-02-07T18:11:14.617Z,99.90
2023-02-07T18:17:07.621Z,99.90
2023-02-07T18:23:02.375Z,99.90
2023-02-07T18:28:55.590Z,99.90
2023-02-07T18:34:49.285Z,99.90
2023-02-07T18:40:43.718Z,99.90
2023-02-07T18:46:37.230Z,99.90
2023-02-07T18:52:30.638Z,99.90
2023-02-07T18:58:25.380Z,99.90
2023-02-07T19:04:19.023Z,99.90
2023-02-07T19:10:12.716Z,99.90
2023-02-07T19:16:09.514Z,99.90
2023-02-07T19:22:03.201Z,99.90
2023-02-07T19:27:56.580Z,99.90
2023-02-07T19:33:53.352Z,99.90
2023-02-07T19:39:46.617Z,99.90
2023-02-07T19:45:39.728Z,99.90
2023-02-07T19:51:34.316Z,99.90
2023-02-07T19:57:28.037Z,99.90
2023-02-07T20:03:21.499Z,99.90
2023-02-07T20:09:16.198Z,99.90
2023-02-07T20:15:10.360Z,99.90
2023-02-07T20:21:11.390Z,99.90
2023-02-07T20:27:06.712Z,99.90
2023-02-07T20:32:59.869Z,99.90
2023-02-07T20:38:53.105Z,99.90
2023-02-07T20:44:47.639Z,99.90
2023-02-07T20:50:41.574Z,99.90
2023-02-07T20:56:36.717Z,99.90
2023-02-07T21:02:31.176Z,99.90
2023-02-07T21:08:25.165Z,99.90
2023-02-07T21:14:20.549Z,99.90
2023-02-07T21:20:16.770Z,99.90
2023-02-07T21:26:11.788Z,99.90
2023-02-07T21:32:05.029Z,99.90
2023-02-07T21:37:59.951Z,99.90
2023-02-07T21:43:54.476Z,99.90
2023-02-07T21:49:47.946Z,99.90
2023-02-07T21:55:42.216Z,99.90
2023-02-07T22:01:36.439Z,99.90
2023-02-07T22:07:29.521Z,99.90
2023-02-07T22:13:23.941Z,99.90
2023-02-07T22:19:17.590Z,99.90
2023-02-07T22:25:10.976Z,99.90
2023-02-07T22:31:10.166Z,99.90
2023-02-07T22:37:04.735Z,99.90
2023-02-07T22:42:58.096Z,99.90
2023-02-07T22:48:53.338Z,99.90
2023-02-07T22:54:46.748Z,99.90
2023-02-07T23:00:40.481Z,99.90
2023-02-07T23:06:35.650Z,99.90
2023-02-07T23:12:28.610Z,99.90
2023-02-07T23:18:21.901Z,99.90
2023-02-07T23:24:17.420Z,99.90
2023-02-07T23:30:12.226Z,99.90
2023-02-07T23:36:06.775Z,99.90
2023-02-07T23:42:01.607Z,99.90
2023-02-07T23:47:55.202Z,99.90
2023-02-07T23:53:48.819Z,99.90
2023-02-07T23:59:43.559Z,99.90
